createdAt,value
2023-02-18T00:01:25.990Z,2.53
2023-02-18T00:03:54.141Z,2.30
2023-02-18T00:06:31.241Z,2.00
2023-02-18T00:09:02.532Z,2.15
2023-02-18T00:11:34.473Z,2.40
2023-02-18T00:14:04.213Z,2.33
2023-02-18T00:16:32.179Z,1.97
2023-02-18T00:19:02.997Z,2.20
2023-02-18T00:21:31.233Z,2.13
2023-02-18T00:23:59.260Z,2.03
2023-02-18T00:26:27.278Z,2.05
2023-02-18T00:28:54.825Z,1.63
2023-02-18T00:31:26.081Z,1.85
2023-02-18T00:33:54.002Z,2.00
2023-02-18T00:36:22.120Z,1.63
2023-02-18T00:38:55.098Z,1.50
2023-02-18T00:41:24.010Z,1.60
2023-02-18T00:43:51.988Z,1.40
2023-02-18T00:46:19.699Z,1.40
2023-02-18T00:48:47.012Z,1.23
2023-02-18T00:51:14.318Z,1.10
2023-02-18T00:53:42.396Z,1.20
2023-02-18T00:56:10.510Z,1.15
2023-02-18T00:58:39.111Z,1.20
2023-02-18T01:01:08.238Z,1.00
2023-02-18T01:03:37.412Z,1.08
2023-02-18T01:06:06.295Z,1.00
2023-02-18T01:08:35.406Z,0.60
2023-02-18T01:11:03.419Z,1.00
2023-02-18T01:13:31.244Z,0.73
2023-02-18T01:15:59.439Z,0.93
2023-02-18T01:18:28.010Z,0.70
2023-02-18T01:20:55.951Z,0.80
2023-02-18T01:23:24.283Z,0.82
2023-02-18T01:25:52.423Z,0.60
2023-02-18T01:28:21.760Z,0.70
2023-02-18T01:30:51.292Z,0.70
2023-02-18T01:33:19.699Z,0.75
2023-02-18T01:35:47.831Z,0.60
2023-02-18T01:38:15.854Z,0.40
2023-02-18T01:40:52.162Z,0.40
2023-02-18T01:43:21.077Z,0.60
2023-02-18T01:45:51.056Z,0.45
2023-02-18T01:48:42.751Z,0.40
2023-02-18T01:51:10.766Z,0.50
2023-02-18T01:53:57.419Z,0.82
2023-02-18T01:56:37.286Z,0.53
2023-02-18T01:59:09.442Z,0.80
2023-02-18T02:01:37.461Z,0.50
2023-02-18T02:04:05.261Z,0.50
2023-02-18T02:06:33.160Z,0.40
2023-02-18T02:09:03.860Z,0.60
2023-02-18T02:12:03.274Z,0.73
2023-02-18T02:14:31.123Z,0.35
2023-02-18T02:17:05.257Z,0.52
2023-02-18T02:19:57.743Z,0.65
2023-02-18T02:22:37.540Z,0.63
2023-02-18T02:25:05.458Z,0.50
2023-02-18T02:27:33.047Z,0.45
2023-02-18T02:30:12.816Z,0.32
2023-02-18T02:32:53.547Z,0.50
2023-02-18T02:35:31.187Z,0.30
2023-02-18T02:38:46.095Z,0.63
2023-02-18T02:41:26.096Z,0.50
2023-02-18T02:44:13.478Z,0.45
2023-02-18T02:46:45.364Z,0.60
2023-02-18T02:49:39.117Z,0.80
2023-02-18T02:52:12.804Z,0.60
2023-02-18T02:54:40.817Z,0.45
2023-02-18T02:57:08.262Z,0.35
2023-02-18T02:59:38.806Z,0.50
2023-02-18T03:02:51.487Z,0.50
2023-02-18T03:05:37.210Z,0.60
2023-02-18T03:08:10.718Z,0.40
2023-02-18T03:11:18.914Z,0.50
2023-02-18T03:14:10.129Z,0.60
2023-02-18T03:16:48.307Z,0.40
2023-02-18T03:19:23.356Z,0.70
2023-02-18T03:21:52.825Z,0.60
2023-02-18T03:24:25.146Z,0.30
2023-02-18T03:26:56.238Z,0.50
2023-02-18T03:29:24.504Z,0.73
2023-02-18T03:31:56.365Z,0.73
2023-02-18T03:34:28.695Z,0.55
2023-02-18T03:36:57.833Z,0.50
2023-02-18T03:39:28.316Z,0.50
2023-02-18T03:41:56.512Z,0.60
2023-02-18T03:44:26.321Z,0.57
2023-02-18T03:46:54.197Z,0.40
2023-02-18T03:49:21.762Z,0.50
2023-02-18T03:51:49.516Z,0.47
2023-02-18T03:54:18.095Z,0.40
2023-02-18T03:56:46.240Z,0.40
2023-02-18T03:59:14.212Z,0.55
2023-02-18T04:01:41.363Z,0.70
2023-02-18T04:04:08.859Z,0.32
2023-02-18T04:06:36.851Z,0.40
2023-02-18T04:09:09.343Z,0.80
2023-02-18T04:11:39.588Z,0.63
2023-02-18T04:14:08.174Z,0.50
2023-02-18T04:16:36.531Z,0.60
2023-02-18T04:19:04.525Z,0.37
2023-02-18T04:21:33.854Z,0.45
2023-02-18T04:24:01.860Z,0.35
2023-02-18T04:26:30.187Z,0.50
2023-02-18T04:28:58.257Z,0.40
2023-02-18T04:31:25.846Z,0.50
2023-02-18T04:33:53.380Z,0.35
2023-02-18T04:36:21.538Z,0.50
2023-02-18T04:38:49.537Z,1.05
2023-02-18T04:41:17.584Z,1.00
2023-02-18T04:43:45.543Z,0.50
2023-02-18T04:46:13.634Z,0.50
2023-02-18T04:48:41.871Z,0.60
2023-02-18T04:51:09.829Z,0.52
2023-02-18T04:53:37.596Z,0.60
2023-02-18T04:56:05.931Z,0.87
2023-02-18T04:58:33.737Z,0.43
2023-02-18T05:01:02.574Z,0.22
2023-02-18T05:03:30.887Z,0.35
2023-02-18T05:05:58.758Z,0.50
2023-02-18T05:08:26.167Z,0.33
2023-02-18T05:10:53.614Z,0.47
2023-02-18T05:13:23.222Z,0.30
2023-02-18T05:15:51.263Z,0.40
2023-02-18T05:18:18.569Z,0.50
2023-02-18T05:20:46.896Z,0.50
2023-02-18T05:23:15.235Z,0.40
2023-02-18T05:25:42.905Z,0.30
2023-02-18T05:28:10.469Z,0.68
2023-02-18T05:30:37.863Z,0.50
2023-02-18T05:33:05.800Z,0.40
2023-02-18T05:35:33.235Z,0.40
2023-02-18T05:38:00.906Z,0.82
2023-02-18T05:40:28.908Z,0.93
2023-02-18T05:42:56.633Z,0.63
2023-02-18T05:45:24.586Z,0.70
2023-02-18T05:47:52.132Z,0.43
2023-02-18T05:50:19.598Z,0.70
2023-02-18T05:52:47.596Z,0.70
2023-02-18T05:55:15.490Z,0.70
2023-02-18T05:57:43.597Z,0.57
2023-02-18T06:00:12.255Z,0.70
2023-02-18T06:02:39.949Z,0.80
2023-02-18T06:05:08.023Z,0.68
2023-02-18T06:07:36.256Z,0.80
2023-02-18T06:10:04.385Z,0.80
2023-02-18T06:12:31.414Z,1.10
2023-02-18T06:14:59.261Z,0.93
2023-02-18T06:17:26.947Z,1.15
2023-02-18T06:19:54.524Z,1.70
2023-02-18T06:22:22.612Z,1.00
2023-02-18T06:24:50.936Z,1.00
2023-02-18T06:27:18.942Z,0.80
2023-02-18T06:29:46.620Z,0.80
2023-02-18T06:32:14.495Z,0.90
2023-02-18T06:34:42.211Z,0.77
2023-02-18T06:37:09.730Z,0.60
2023-02-18T06:39:38.796Z,0.73
2023-02-18T06:42:06.460Z,0.80
2023-02-18T06:44:33.817Z,0.60
2023-02-18T06:47:01.619Z,0.87
2023-02-18T06:49:28.834Z,0.50
2023-02-18T06:51:55.773Z,0.70
2023-02-18T06:54:23.873Z,0.47
2023-02-18T06:56:51.618Z,0.68
2023-02-18T06:59:19.289Z,0.77
2023-02-18T07:01:47.294Z,1.00
2023-02-18T07:04:15.079Z,0.90
2023-02-18T07:06:42.957Z,0.70
2023-02-18T07:09:10.838Z,0.95
2023-02-18T07:11:38.744Z,0.60
2023-02-18T07:14:08.388Z,0.60
2023-02-18T07:16:36.696Z,0.60
2023-02-18T07:19:04.647Z,0.63
2023-02-18T07:21:32.639Z,0.90
2023-02-18T07:24:00.483Z,0.60
2023-02-18T07:26:28.014Z,1.08
2023-02-18T07:28:55.730Z,0.93
2023-02-18T07:31:23.539Z,1.05
2023-02-18T07:33:51.565Z,0.90
2023-02-18T07:36:19.107Z,1.40
2023-02-18T07:38:47.550Z,1.90
2023-02-18T07:41:21.323Z,1.30
2023-02-18T07:43:48.980Z,1.45
2023-02-18T07:46:17.325Z,0.90
2023-02-18T07:48:45.329Z,0.80
2023-02-18T07:51:13.669Z,0.75
2023-02-18T07:53:41.661Z,0.80
2023-02-18T07:56:09.928Z,0.60
2023-02-18T07:58:38.834Z,0.57
2023-02-18T08:01:08.333Z,0.77
2023-02-18T08:03:35.989Z,0.60
2023-02-18T08:06:05.310Z,0.70
2023-02-18T08:08:35.195Z,0.70
2023-02-18T08:11:13.337Z,0.70
2023-02-18T08:13:46.991Z,0.70
2023-02-18T08:16:15.849Z,0.88
2023-02-18T08:18:44.518Z,0.60
2023-02-18T08:21:12.685Z,0.43
2023-02-18T08:23:41.117Z,0.38
2023-02-18T08:26:09.283Z,0.43
2023-02-18T08:28:37.671Z,0.60
2023-02-18T08:31:05.491Z,0.45
2023-02-18T08:33:33.692Z,0.93
2023-02-18T08:36:01.544Z,0.75
2023-02-18T08:38:29.696Z,0.53
2023-02-18T08:41:06.246Z,0.52
2023-02-18T08:43:34.775Z,0.60
2023-02-18T08:46:03.089Z,0.65
2023-02-18T08:48:30.979Z,0.70
2023-02-18T08:50:59.030Z,0.57
2023-02-18T08:53:26.936Z,0.63
2023-02-18T08:55:54.798Z,0.52
2023-02-18T08:58:23.167Z,0.70
2023-02-18T09:00:51.039Z,0.50
2023-02-18T09:03:18.533Z,0.70
2023-02-18T09:05:46.526Z,0.80
2023-02-18T09:08:14.720Z,0.70
2023-02-18T09:10:43.222Z,0.70
2023-02-18T09:13:11.951Z,0.80
2023-02-18T09:15:39.846Z,1.03
2023-02-18T09:18:07.723Z,0.80
2023-02-18T09:20:35.721Z,0.80
2023-02-18T09:23:04.012Z,0.85
2023-02-18T09:25:31.523Z,0.60
2023-02-18T09:27:59.721Z,0.40
2023-02-18T09:30:27.281Z,0.50
2023-02-18T09:32:54.805Z,0.50
2023-02-18T09:35:22.634Z,0.40
2023-02-18T09:37:50.810Z,0.50
2023-02-18T09:40:31.028Z,0.70
2023-02-18T09:42:59.814Z,0.68
2023-02-18T09:45:28.725Z,0.60
2023-02-18T09:47:56.826Z,0.90
2023-02-18T09:50:28.235Z,0.60
2023-02-18T09:52:57.203Z,0.60
2023-02-18T09:55:34.204Z,0.73
2023-02-18T09:58:04.389Z,0.85
2023-02-18T10:00:41.976Z,0.60
2023-02-18T10:03:16.218Z,0.70
2023-02-18T10:06:01.769Z,0.40
2023-02-18T10:08:38.845Z,0.50
2023-02-18T10:11:14.227Z,0.52
2023-02-18T10:13:42.223Z,0.40
2023-02-18T10:16:10.672Z,0.60
2023-02-18T10:18:42.845Z,0.73
2023-02-18T10:21:13.249Z,0.50
2023-02-18T10:23:43.232Z,0.60
2023-02-18T10:26:15.760Z,0.50
2023-02-18T10:28:44.086Z,0.60
2023-02-18T10:31:16.302Z,0.73
2023-02-18T10:34:05.470Z,0.77
2023-02-18T10:36:39.093Z,0.50
2023-02-18T10:39:09.746Z,0.57
2023-02-18T10:41:44.862Z,0.60
2023-02-18T10:44:38.245Z,0.70
2023-02-18T10:47:20.876Z,0.60
2023-02-18T10:50:01.074Z,0.50
2023-02-18T10:52:34.694Z,0.60
2023-02-18T10:55:09.688Z,0.40
2023-02-18T10:57:47.817Z,0.43
2023-02-18T11:00:17.849Z,0.52
2023-02-18T11:02:46.258Z,0.40
2023-02-18T11:05:24.520Z,0.32
2023-02-18T11:07:55.262Z,0.50
2023-02-18T11:10:30.670Z,0.60
2023-02-18T11:13:03.689Z,0.50
2023-02-18T11:15:31.532Z,0.70
2023-02-18T11:18:15.768Z,0.70
2023-02-18T11:20:57.898Z,0.60
2023-02-18T11:23:25.890Z,0.60
2023-02-18T11:25:57.275Z,0.70
2023-02-18T11:28:29.119Z,1.02
2023-02-18T11:31:01.797Z,1.25
2023-02-18T11:33:39.629Z,1.20
2023-02-18T11:36:24.773Z,1.10
2023-02-18T11:38:56.455Z,1.10
2023-02-18T11:41:32.573Z,1.00
2023-02-18T11:44:00.912Z,1.10
2023-02-18T11:46:29.853Z,1.00
2023-02-18T11:49:12.449Z,0.93
2023-02-18T11:51:41.294Z,1.05
2023-02-18T11:54:30.717Z,1.30
2023-02-18T11:57:04.425Z,1.25
2023-02-18T11:59:37.540Z,1.48
2023-02-18T12:02:11.334Z,1.17
2023-02-18T12:04:52.832Z,1.02
2023-02-18T12:07:27.142Z,1.10
2023-02-18T12:10:01.546Z,1.63
2023-02-18T12:12:31.933Z,1.30
2023-02-18T12:15:00.367Z,1.23
2023-02-18T12:17:47.797Z,1.23
2023-02-18T12:20:21.555Z,1.30
2023-02-18T12:23:05.947Z,1.50
2023-02-18T12:25:49.558Z,1.40
2023-02-18T12:28:57.843Z,1.20
2023-02-18T12:31:37.582Z,1.30
2023-02-18T12:34:31.793Z,1.85
2023-02-18T12:37:19.768Z,1.23
2023-02-18T12:40:05.938Z,1.38
2023-02-18T12:42:53.170Z,1.00
2023-02-18T12:45:26.806Z,0.90
2023-02-18T12:48:09.481Z,1.10
2023-02-18T12:50:58.483Z,0.90
2023-02-18T12:53:36.818Z,1.20
2023-02-18T12:56:19.165Z,0.90
2023-02-18T12:58:54.110Z,1.20
2023-02-18T13:01:41.974Z,1.40
2023-02-18T13:04:27.815Z,1.88
2023-02-18T13:07:25.979Z,1.20
2023-02-18T13:10:19.132Z,1.40
2023-02-18T13:12:55.189Z,1.60
2023-02-18T13:15:41.817Z,1.80
2023-02-18T13:18:13.821Z,2.15
2023-02-18T13:21:00.818Z,2.47
2023-02-18T13:23:35.819Z,2.70
2023-02-18T13:26:06.699Z,2.40
2023-02-18T13:28:43.199Z,2.42
2023-02-18T13:31:32.080Z,2.33
2023-02-18T13:34:05.739Z,2.70
2023-02-18T13:36:33.212Z,2.70
2023-02-18T13:39:03.825Z,2.55
2023-02-18T13:41:40.211Z,2.50
2023-02-18T13:44:09.825Z,2.17
2023-02-18T13:46:52.826Z,1.80
2023-02-18T13:49:25.800Z,1.50
2023-02-18T13:51:55.839Z,1.50
2023-02-18T13:54:28.207Z,1.20
2023-02-18T13:57:04.402Z,1.10
2023-02-18T13:59:40.221Z,0.80
2023-02-18T14:02:23.338Z,0.90
2023-02-18T14:04:53.253Z,0.77
2023-02-18T14:07:42.022Z,1.10
2023-02-18T14:10:19.148Z,1.20
2023-02-18T14:12:59.219Z,1.30
2023-02-18T14:15:27.035Z,1.53
2023-02-18T14:18:16.036Z,1.00
2023-02-18T14:20:51.842Z,1.40
2023-02-18T14:23:19.479Z,2.00
2023-02-18T14:26:04.637Z,1.63
2023-02-18T14:28:35.411Z,1.70
2023-02-18T14:31:13.153Z,2.10
2023-02-18T14:33:45.041Z,1.80
2023-02-18T14:36:16.238Z,1.50
2023-02-18T14:39:28.419Z,1.48
2023-02-18T14:42:25.077Z,1.40
2023-02-18T14:44:56.239Z,1.30
2023-02-18T14:47:48.851Z,1.42
2023-02-18T14:50:19.436Z,1.50
2023-02-18T14:52:50.267Z,1.15
2023-02-18T14:55:33.430Z,1.13
2023-02-18T14:58:07.713Z,1.00
2023-02-18T15:00:40.784Z,1.10
2023-02-18T15:03:17.860Z,1.25
2023-02-18T15:05:47.071Z,1.30
2023-02-18T15:08:19.862Z,1.10
2023-02-18T15:11:04.078Z,1.42
2023-02-18T15:13:32.632Z,1.33
2023-02-18T15:16:07.437Z,1.10
2023-02-18T15:18:48.703Z,1.30
2023-02-18T15:21:26.733Z,1.10
2023-02-18T15:23:54.870Z,1.33
2023-02-18T15:26:22.872Z,1.38
2023-02-18T15:29:02.558Z,1.10
2023-02-18T15:31:32.329Z,1.05
2023-02-18T15:34:00.564Z,1.10
2023-02-18T15:36:28.103Z,1.30
2023-02-18T15:38:57.868Z,1.10
2023-02-18T15:41:25.202Z,0.90
2023-02-18T15:44:03.962Z,0.88
2023-02-18T15:46:32.845Z,1.20
2023-02-18T15:49:01.871Z,1.52
2023-02-18T15:51:31.294Z,1.10
2023-02-18T15:54:01.875Z,1.42
2023-02-18T15:56:39.680Z,1.85
2023-02-18T15:59:26.894Z,1.70
2023-02-18T16:02:02.829Z,2.15
2023-02-18T16:04:33.985Z,1.67
2023-02-18T16:07:23.888Z,1.75
2023-02-18T16:09:58.213Z,1.42
2023-02-18T16:12:31.755Z,1.40
2023-02-18T16:14:59.885Z,1.58
2023-02-18T16:17:29.606Z,9.85
2023-02-18T16:20:05.701Z,10.73
2023-02-18T16:22:38.994Z,12.32
2023-02-18T16:25:18.131Z,13.80
2023-02-18T16:28:07.493Z,13.70
2023-02-18T16:30:35.971Z,13.30
2023-02-18T16:33:03.890Z,15.18
2023-02-18T16:35:47.426Z,14.20
2023-02-18T16:38:18.894Z,15.30
2023-02-18T16:40:46.771Z,16.13
2023-02-18T16:43:15.719Z,15.38
2023-02-18T16:45:49.939Z,15.65
2023-02-18T16:48:21.145Z,16.05
2023-02-18T16:50:50.767Z,16.50
2023-02-18T16:53:18.325Z,17.23
2023-02-18T16:55:46.011Z,17.35
2023-02-18T16:58:14.010Z,16.60
2023-02-18T17:00:42.292Z,17.85
2023-02-18T17:03:11.013Z,16.87
2023-02-18T17:05:41.897Z,17.90
2023-02-18T17:08:25.012Z,18.25
2023-02-18T17:10:54.780Z,18.67
2023-02-18T17:13:27.921Z,16.55
2023-02-18T17:15:56.783Z,17.67
2023-02-18T17:18:24.908Z,17.27
2023-02-18T17:20:53.919Z,18.65
2023-02-18T17:23:23.928Z,17.90
2023-02-18T17:25:52.912Z,18.25
2023-02-18T17:28:21.343Z,19.57
2023-02-18T17:30:54.404Z,19.65
2023-02-18T17:33:22.545Z,18.10
2023-02-18T17:35:50.301Z,19.60
2023-02-18T17:38:19.853Z,19.40
2023-02-18T17:40:50.293Z,19.57
2023-02-18T17:43:19.722Z,18.75
2023-02-18T17:45:55.813Z,19.38
2023-02-18T17:48:23.924Z,20.23
2023-02-18T17:50:52.734Z,18.98
2023-02-18T17:53:20.930Z,19.53
2023-02-18T17:55:49.357Z,18.13
2023-02-18T17:58:17.825Z,18.13
2023-02-18T18:00:52.871Z,17.13
2023-02-18T18:03:20.823Z,18.48
2023-02-18T18:05:52.372Z,17.37
2023-02-18T18:08:20.607Z,18.02
2023-02-18T18:10:51.637Z,17.58
2023-02-18T18:13:23.935Z,16.83
2023-02-18T18:15:52.065Z,16.27
2023-02-18T18:18:19.825Z,16.27
2023-02-18T18:20:51.067Z,16.48
2023-02-18T18:23:20.832Z,17.42
2023-02-18T18:25:51.741Z,17.33
2023-02-18T18:28:19.835Z,18.08
2023-02-18T18:30:50.802Z,18.27
2023-02-18T18:33:21.218Z,18.45
2023-02-18T18:35:51.945Z,19.15
2023-02-18T18:38:21.080Z,17.45
2023-02-18T18:40:49.770Z,17.05
2023-02-18T18:43:21.600Z,16.10
2023-02-18T18:45:50.559Z,16.10
2023-02-18T18:48:18.855Z,15.40
2023-02-18T18:50:47.756Z,15.45
2023-02-18T18:53:28.414Z,14.40
2023-02-18T18:55:58.761Z,13.80
2023-02-18T18:58:26.760Z,14.07
2023-02-18T19:00:58.878Z,13.10
2023-02-18T19:03:27.761Z,14.63
2023-02-18T19:05:56.398Z,13.73
2023-02-18T19:08:25.342Z,13.13
2023-02-18T19:10:55.636Z,13.00
2023-02-18T19:13:30.891Z,13.32
2023-02-18T19:16:25.548Z,13.57
2023-02-18T19:18:54.764Z,13.40
2023-02-18T19:21:22.765Z,13.30
2023-02-18T19:23:50.605Z,14.13
2023-02-18T19:26:18.775Z,13.75
2023-02-18T19:28:46.891Z,13.52
2023-02-18T19:31:16.067Z,14.23
2023-02-18T19:33:47.029Z,12.90
2023-02-18T19:36:15.628Z,14.00
2023-02-18T19:38:43.776Z,14.98
2023-02-18T19:41:14.912Z,14.98
2023-02-18T19:43:44.685Z,13.10
2023-02-18T19:46:14.161Z,13.77
2023-02-18T19:48:42.793Z,12.70
2023-02-18T19:51:10.981Z,14.10
2023-02-18T19:53:39.127Z,12.43
2023-02-18T19:56:07.944Z,12.27
2023-02-18T19:58:37.132Z,12.97
2023-02-18T20:01:05.136Z,12.38
2023-02-18T20:03:34.279Z,12.10
2023-02-18T20:06:01.912Z,13.38
2023-02-18T20:08:29.532Z,13.05
2023-02-18T20:11:00.138Z,13.60
2023-02-18T20:13:28.293Z,12.95
2023-02-18T20:15:55.981Z,13.15
2023-02-18T20:18:23.978Z,12.00
2023-02-18T20:20:51.875Z,12.00
2023-02-18T20:23:20.150Z,12.87
2023-02-18T20:25:48.151Z,12.98
2023-02-18T20:28:16.191Z,12.57
2023-02-18T20:30:44.811Z,11.38
2023-02-18T20:33:12.812Z,12.55
2023-02-18T20:35:40.932Z,12.33
2023-02-18T20:38:08.675Z,13.00
2023-02-18T20:40:36.140Z,12.18
2023-02-18T20:43:04.086Z,11.98
2023-02-18T20:45:32.845Z,11.63
2023-02-18T20:48:00.683Z,12.13
2023-02-18T20:50:28.163Z,11.45
2023-02-18T20:52:56.452Z,11.40
2023-02-18T20:55:24.686Z,11.35
2023-02-18T20:57:52.825Z,10.77
2023-02-18T21:00:20.959Z,10.93
2023-02-18T21:02:48.774Z,11.48
2023-02-18T21:05:16.955Z,9.82
2023-02-18T21:07:44.958Z,9.68
2023-02-18T21:10:12.833Z,10.60
2023-02-18T21:12:41.006Z,9.03
2023-02-18T21:15:09.836Z,7.80
2023-02-18T21:17:37.963Z,7.63
2023-02-18T21:20:06.573Z,6.20
2023-02-18T21:22:34.184Z,5.65
2023-02-18T21:25:02.019Z,5.20
2023-02-18T21:27:29.705Z,4.50
2023-02-18T21:29:59.902Z,4.50
2023-02-18T21:32:27.797Z,4.20
2023-02-18T21:34:55.872Z,4.03
2023-02-18T21:37:23.920Z,4.07
2023-02-18T21:39:52.011Z,3.97
2023-02-18T21:42:19.974Z,3.63
2023-02-18T21:44:48.717Z,3.63
2023-02-18T21:47:16.489Z,3.72
2023-02-18T21:49:44.181Z,3.53
2023-02-18T21:52:12.346Z,2.92
2023-02-18T21:54:42.985Z,2.75
2023-02-18T21:57:20.084Z,2.92
2023-02-18T21:59:47.862Z,2.00
2023-02-18T22:02:23.173Z,2.07
2023-02-18T22:04:52.226Z,1.75
2023-02-18T22:07:22.214Z,2.00
2023-02-18T22:09:54.221Z,1.67
2023-02-18T22:12:24.216Z,1.83
2023-02-18T22:14:51.869Z,2.03
2023-02-18T22:17:21.952Z,1.90
2023-02-18T22:19:49.751Z,2.13
2023-02-18T22:22:18.012Z,1.98
2023-02-18T22:24:45.958Z,1.88
2023-02-18T22:27:13.895Z,2.27
2023-02-18T22:29:42.226Z,2.10
2023-02-18T22:32:09.939Z,2.05
2023-02-18T22:34:38.016Z,1.73
2023-02-18T22:37:05.382Z,1.88
2023-02-18T22:39:33.020Z,1.80
2023-02-18T22:42:00.536Z,2.28
2023-02-18T22:44:28.122Z,1.95
2023-02-18T22:46:58.755Z,2.20
2023-02-18T22:49:26.235Z,2.00
2023-02-18T22:51:54.897Z,1.90
2023-02-18T22:54:22.465Z,1.77
2023-02-18T22:56:50.245Z,2.70
2023-02-18T22:59:19.997Z,2.30
2023-02-18T23:01:49.939Z,2.10
2023-02-18T23:04:19.316Z,2.40
2023-02-18T23:06:47.949Z,1.85
2023-02-18T23:09:19.537Z,1.92
2023-02-18T23:11:50.798Z,1.42
2023-02-18T23:14:18.272Z,1.50
2023-02-18T23:17:05.045Z,1.30
2023-02-18T23:19:34.257Z,1.25
2023-02-18T23:22:02.257Z,1.10
2023-02-18T23:24:33.205Z,1.00
2023-02-18T23:27:01.262Z,1.05
2023-02-18T23:29:29.054Z,1.33
2023-02-18T23:31:56.819Z,1.60
2023-02-18T23:34:24.044Z,1.45
2023-02-18T23:36:52.003Z,1.50
2023-02-18T23:39:21.555Z,1.73
2023-02-18T23:41:50.269Z,1.50
2023-02-18T23:44:20.833Z,1.35
2023-02-18T23:46:48.803Z,1.70
2023-02-18T23:49:19.064Z,1.90
2023-02-18T23:51:46.817Z,1.50
2023-02-18T23:54:14.066Z,1.40
2023-02-18T23:56:42.018Z,1.60
2023-02-18T23:59:10.928Z,1.17
